Terminal Aerodrome Forecast
Issued by NWS Columbia, SC

Home | Current Version | Previous Version | Text Only | Print | Product List | Glossary On
Versions: 1 2 3 4 5 6 7 8 9 10 11 12 13 14 15 16 17 18 19 20 21 22 23 24 25 26 27 28 29 30 31 32 33 34 35 36
000
FTUS42 KCAE 180800 AAA
TAFCAE
TAF AMD
KCAE 180829Z 1808/1906 00000KT 6SM BR VCSH SCT006 BKN012
      TEMPO 1809/1812 4SM BR BKN005
     FM181500 04004KT P6SM BKN015
     FM181800 06005KT P6SM BKN025=

USA.gov is the U.S. government's official web portal to all federal, state and local government web resources and services.